Time;durP1;ratioP1;P1;durP2;ratioP2;P2;SDS_P1;SDS_P2;PMS_P1;PMS_P2;Temp;Humidity;BMP_temperature;BMP_pressure;BME280_temperature;BME280_humidity;BME280_pressure;Samples;Min_cycle;Max_cycle;Signal;HPM_P1;HPM_P2
2020/12/17 00:02:16;;;;;;;22.57;15.37;;;4.80;99.90;;;;;;5054436;28;20199;-57
2020/12/17 00:04:42;;;;;;;19.80;13.33;;;4.80;99.90;;;;;;5050615;28;20229;-56
2020/12/17 00:07:07;;;;;;;20.93;14.07;;;4.80;99.90;;;;;;5054429;28;20242;-52
2020/12/17 00:09:33;;;;;;;20.27;13.07;;;4.80;99.90;;;;;;5054570;28;20182;-54
2020/12/17 00:11:58;;;;;;;22.23;14.03;;;4.80;99.90;;;;;;5053932;28;20603;-53
2020/12/17 00:14:24;;;;;;;19.40;13.97;;;4.80;99.90;;;;;;5053688;28;20232;-52
2020/12/17 00:16:49;;;;;;;21.70;14.60;;;4.80;99.90;;;;;;5053639;28;20202;-56
2020/12/17 00:19:15;;;;;;;20.43;13.90;;;4.80;99.90;;;;;;5054262;28;20266;-60
2020/12/17 00:21:41;;;;;;;20.13;13.23;;;4.70;99.90;;;;;;5054120;28;20232;-54
2020/12/17 00:24:06;;;;;;;17.73;12.27;;;4.60;99.90;;;;;;5054344;28;20224;-51
2020/12/17 00:26:32;;;;;;;19.07;13.57;;;4.60;99.90;;;;;;5053267;28;20608;-61
2020/12/17 00:28:57;;;;;;;19.27;13.53;;;4.60;99.90;;;;;;5053466;28;20175;-51
2020/12/17 00:31:23;;;;;;;18.10;12.80;;;4.60;99.90;;;;;;5056885;28;20171;-55
2020/12/17 00:33:49;;;;;;;21.50;14.63;;;4.60;99.90;;;;;;5058565;28;20171;-51
2020/12/17 00:36:19;;;;;;;22.07;14.30;;;4.60;99.90;;;;;;5057555;28;20175;-61
2020/12/17 00:38:46;;;;;;;18.73;13.23;;;4.50;99.90;;;;;;5058345;28;20206;-51
2020/12/17 00:41:13;;;;;;;20.80;13.83;;;4.50;99.90;;;;;;5057795;28;20519;-57
2020/12/17 00:43:38;;;;;;;19.90;14.13;;;4.50;99.90;;;;;;5057373;28;20179;-61
2020/12/17 00:46:04;;;;;;;22.30;14.37;;;4.50;99.90;;;;;;5057510;28;20213;-59
2020/12/17 00:48:29;;;;;;;19.80;13.97;;;4.50;99.90;;;;;;5057781;28;20201;-61
2020/12/17 00:50:55;;;;;;;18.03;12.90;;;4.40;99.90;;;;;;5057784;28;20171;-58
2020/12/17 00:53:20;;;;;;;22.03;14.77;;;4.40;99.90;;;;;;5057677;28;20221;-61
2020/12/17 00:55:46;;;;;;;20.43;14.10;;;4.40;99.90;;;;;;5057330;28;20225;-55
2020/12/17 00:58:11;;;;;;;20.60;13.67;;;4.40;99.90;;;;;;5057459;28;20218;-59
2020/12/17 01:00:37;;;;;;;20.63;13.73;;;4.40;99.90;;;;;;5057403;28;20572;-54
2020/12/17 01:03:03;;;;;;;20.33;13.70;;;4.30;99.90;;;;;;5057743;28;20587;-53
2020/12/17 01:05:28;;;;;;;21.47;14.73;;;4.20;99.90;;;;;;5056667;28;20199;-53
2020/12/17 01:07:54;;;;;;;21.20;14.37;;;4.20;99.90;;;;;;5056771;28;20191;-61
2020/12/17 01:10:19;;;;;;;20.20;13.83;;;4.20;99.90;;;;;;5056823;28;20240;-61
2020/12/17 01:12:45;;;;;;;21.00;14.27;;;4.30;99.90;;;;;;5056936;28;20197;-55
2020/12/17 01:15:10;;;;;;;21.30;14.17;;;4.40;99.90;;;;;;5056827;28;20512;-56
2020/12/17 01:17:36;;;;;;;20.70;14.53;;;4.30;99.90;;;;;;5056734;28;20199;-60
2020/12/17 01:20:01;;;;;;;19.93;13.90;;;4.30;99.90;;;;;;5056901;28;20175;-58
2020/12/17 01:22:27;;;;;;;22.13;14.57;;;4.30;99.90;;;;;;5057155;28;20179;-53
2020/12/17 01:24:52;;;;;;;20.00;13.93;;;4.40;99.90;;;;;;5056965;28;20183;-54
2020/12/17 01:27:18;;;;;;;20.70;14.40;;;4.40;99.90;;;;;;5056952;28;20191;-58
2020/12/17 01:29:43;;;;;;;19.40;14.20;;;4.50;99.90;;;;;;5036968;28;20200;-56
2020/12/17 01:32:09;;;;;;;20.03;12.80;;;4.50;99.90;;;;;;5036455;28;20509;-60
2020/12/17 01:34:34;;;;;;;19.37;12.53;;;4.50;99.90;;;;;;5036822;28;20225;-60
2020/12/17 01:37:00;;;;;;;17.27;12.27;;;4.50;99.90;;;;;;5037778;28;20575;-51
2020/12/17 01:39:26;;;;;;;16.87;12.47;;;4.50;99.90;;;;;;5037050;28;20493;-51
2020/12/17 01:41:53;;;;;;;22.53;13.93;;;4.50;99.90;;;;;;5036268;28;20258;-59
2020/12/17 01:44:19;;;;;;;18.33;13.00;;;4.50;99.90;;;;;;5036282;28;20640;-60
2020/12/17 01:46:44;;;;;;;18.83;13.10;;;4.60;99.90;;;;;;5036017;28;20219;-57
2020/12/17 01:49:12;;;;;;;17.13;12.73;;;4.50;99.90;;;;;;5036281;28;20168;-59
2020/12/17 01:51:38;;;;;;;19.83;13.43;;;4.50;99.90;;;;;;5036573;28;20172;-61
2020/12/17 01:54:03;;;;;;;20.97;13.73;;;4.60;99.90;;;;;;5036285;28;20500;-57
2020/12/17 01:56:29;;;;;;;18.90;13.53;;;4.80;99.90;;;;;;5036285;28;20675;-61
2020/12/17 01:59:12;;;;;;;19.57;13.97;;;4.80;99.90;;;;;;5036091;28;20179;-61
2020/12/17 02:01:43;;;;;;;18.07;13.23;;;4.70;99.90;;;;;;5036808;28;20176;-61
2020/12/17 02:04:09;;;;;;;19.37;13.63;;;4.70;99.90;;;;;;5036478;28;20592;-61
2020/12/17 02:06:35;;;;;;;22.30;15.07;;;4.70;99.90;;;;;;5036124;28;20671;-61
2020/12/17 02:09:02;;;;;;;19.07;13.67;;;4.90;99.90;;;;;;5036010;28;20222;-60
2020/12/17 02:11:27;;;;;;;21.37;15.00;;;4.90;99.90;;;;;;5036594;28;20222;-59
2020/12/17 02:13:53;;;;;;;19.17;13.90;;;4.90;99.90;;;;;;5036172;28;20199;-58
2020/12/17 02:16:19;;;;;;;18.80;13.47;;;5.00;99.90;;;;;;5036184;28;20226;-61
2020/12/17 02:18:44;;;;;;;18.30;13.30;;;5.10;99.90;;;;;;5036106;28;20253;-57
2020/12/17 02:21:10;;;;;;;18.53;13.57;;;5.10;99.90;;;;;;5035956;28;20183;-56
2020/12/17 02:23:37;;;;;;;18.53;13.20;;;5.10;99.90;;;;;;5035727;28;20216;-61
2020/12/17 02:26:03;;;;;;;19.37;13.10;;;5.20;99.90;;;;;;5035842;28;20713;-55
2020/12/17 02:28:29;;;;;;;18.40;13.13;;;5.20;99.90;;;;;;5035369;28;20195;-58
2020/12/17 02:30:54;;;;;;;19.57;13.70;;;5.10;99.90;;;;;;5035250;28;20175;-53
2020/12/17 02:33:20;;;;;;;19.83;13.73;;;5.20;99.90;;;;;;5035726;28;20176;-53
2020/12/17 02:35:46;;;;;;;19.03;13.47;;;5.20;99.90;;;;;;5035363;28;20226;-57
2020/12/17 02:38:11;;;;;;;19.43;13.60;;;5.30;99.90;;;;;;5035173;28;20238;-61
2020/12/17 02:40:37;;;;;;;17.13;12.27;;;5.30;99.90;;;;;;5035977;28;20175;-59
2020/12/17 02:43:03;;;;;;;18.00;13.47;;;5.30;99.90;;;;;;5035883;28;20175;-60
2020/12/17 02:45:29;;;;;;;17.63;13.37;;;5.30;99.90;;;;;;5035021;28;20203;-53
2020/12/17 02:47:55;;;;;;;16.83;12.63;;;5.20;99.90;;;;;;5035186;28;20196;-52
2020/12/17 02:50:20;;;;;;;17.23;12.70;;;5.10;99.90;;;;;;5035242;28;20171;-61
2020/12/17 02:52:46;;;;;;;18.93;13.03;;;5.10;99.90;;;;;;5034342;28;20260;-52
2020/12/17 02:55:12;;;;;;;19.07;12.67;;;5.20;99.90;;;;;;5035208;28;20184;-60
2020/12/17 02:57:38;;;;;;;20.07;14.60;;;5.10;99.90;;;;;;5035121;28;20196;-55
2020/12/17 03:00:06;;;;;;;17.60;13.10;;;5.00;99.90;;;;;;5034649;28;20233;-60
2020/12/17 03:02:32;;;;;;;18.43;13.03;;;4.90;99.90;;;;;;5035699;28;20199;-53
2020/12/17 03:04:57;;;;;;;21.23;15.37;;;5.00;99.90;;;;;;5035273;28;20176;-60
2020/12/17 03:07:23;;;;;;;20.97;14.80;;;4.80;99.90;;;;;;5035123;28;20535;-53
2020/12/17 03:09:48;;;;;;;19.67;13.93;;;4.80;99.90;;;;;;5035044;28;20216;-54
2020/12/17 03:12:14;;;;;;;18.00;13.47;;;4.80;99.90;;;;;;5035234;28;20184;-55
2020/12/17 03:14:39;;;;;;;20.00;14.13;;;4.70;99.90;;;;;;5034507;28;20176;-54
2020/12/17 03:17:05;;;;;;;18.87;13.90;;;4.70;99.90;;;;;;5035060;28;20195;-54
2020/12/17 03:19:30;;;;;;;19.43;14.00;;;4.70;99.90;;;;;;5034909;28;20185;-53
2020/12/17 03:21:56;;;;;;;21.53;15.07;;;4.80;99.90;;;;;;5035061;28;20182;-55
2020/12/17 03:24:21;;;;;;;17.77;13.57;;;4.70;99.90;;;;;;5034856;28;20183;-58
2020/12/17 03:26:47;;;;;;;21.40;14.97;;;4.60;99.90;;;;;;5034186;28;20265;-54
2020/12/17 03:29:12;;;;;;;20.40;14.13;;;4.50;99.90;;;;;;5034466;28;20178;-59
2020/12/17 03:31:38;;;;;;;22.17;15.30;;;4.40;99.90;;;;;;5034176;28;20172;-54
2020/12/17 03:34:03;;;;;;;21.53;14.33;;;4.40;99.90;;;;;;5034653;28;20627;-57
2020/12/17 03:36:29;;;;;;;19.27;14.00;;;4.40;99.90;;;;;;5034037;28;20267;-54
2020/12/17 03:38:55;;;;;;;17.93;12.80;;;4.40;99.90;;;;;;5034844;28;20195;-52
2020/12/17 03:41:20;;;;;;;19.70;13.53;;;4.50;99.90;;;;;;5034093;28;20237;-55
2020/12/17 03:43:46;;;;;;;17.37;12.83;;;4.70;99.90;;;;;;5034740;28;20176;-53
2020/12/17 03:46:11;;;;;;;19.90;13.20;;;4.70;99.90;;;;;;5034131;28;20211;-60
2020/12/17 03:48:37;;;;;;;17.90;13.00;;;4.80;99.90;;;;;;5033879;28;20191;-59
2020/12/17 03:51:02;;;;;;;16.03;12.43;;;4.90;99.90;;;;;;5034071;28;20240;-56
2020/12/17 03:53:28;;;;;;;17.83;12.90;;;4.90;99.90;;;;;;5034501;28;20175;-61
2020/12/17 03:55:53;;;;;;;19.73;12.73;;;4.90;99.90;;;;;;5034095;28;20246;-56
2020/12/17 03:58:19;;;;;;;18.33;12.60;;;5.00;99.90;;;;;;5034733;28;20195;-58
2020/12/17 04:00:45;;;;;;;16.90;12.63;;;5.00;99.90;;;;;;5034198;28;20207;-61
2020/12/17 04:03:11;;;;;;;16.10;12.03;;;5.00;99.90;;;;;;5034126;28;20202;-53
2020/12/17 04:05:36;;;;;;;16.27;12.83;;;5.10;99.90;;;;;;5033582;28;20555;-60
2020/12/17 04:08:02;;;;;;;18.20;12.97;;;5.10;99.90;;;;;;5034318;28;20195;-52
2020/12/17 04:10:27;;;;;;;19.20;14.07;;;5.10;99.90;;;;;;5034158;28;20242;-57
2020/12/17 04:12:53;;;;;;;19.67;13.47;;;5.20;99.90;;;;;;5034254;28;20199;-53
2020/12/17 04:15:19;;;;;;;17.07;12.83;;;5.10;99.90;;;;;;5033707;28;20187;-61
2020/12/17 04:17:44;;;;;;;17.90;13.57;;;5.00;99.90;;;;;;5034331;28;20207;-54
2020/12/17 04:20:10;;;;;;;16.47;12.60;;;5.00;99.90;;;;;;5034117;28;20267;-58
2020/12/17 04:22:35;;;;;;;16.63;12.00;;;4.90;99.90;;;;;;5034256;28;20176;-58
2020/12/17 04:25:01;;;;;;;16.40;11.90;;;5.00;99.90;;;;;;5033983;28;20192;-56
2020/12/17 04:27:27;;;;;;;16.57;11.97;;;5.10;99.90;;;;;;5034039;28;20187;-52
2020/12/17 04:29:53;;;;;;;17.40;12.93;;;5.20;99.90;;;;;;5034192;28;20255;-55
2020/12/17 04:32:19;;;;;;;17.17;13.03;;;5.30;99.90;;;;;;5033998;28;20168;-53
2020/12/17 04:34:44;;;;;;;17.37;11.80;;;5.20;99.90;;;;;;5034004;28;20489;-54
2020/12/17 04:37:10;;;;;;;18.07;12.40;;;5.10;99.90;;;;;;5033789;28;20203;-53
2020/12/17 04:39:35;;;;;;;16.60;12.43;;;5.00;99.90;;;;;;5034147;28;20198;-55
2020/12/17 04:42:01;;;;;;;15.93;12.80;;;4.80;99.90;;;;;;5034150;28;20212;-59
2020/12/17 04:44:27;;;;;;;17.03;12.17;;;4.90;99.90;;;;;;5033543;28;20669;-59
2020/12/17 04:46:58;;;;;;;18.13;13.00;;;4.90;99.90;;;;;;5033696;28;20199;-60
2020/12/17 04:49:27;;;;;;;17.53;13.20;;;4.80;99.90;;;;;;5033934;28;20166;-53
2020/12/17 04:51:56;;;;;;;17.53;12.97;;;4.80;99.90;;;;;;5033336;28;20179;-62
2020/12/17 04:54:23;;;;;;;16.70;12.30;;;4.70;99.90;;;;;;5033523;28;20268;-53
2020/12/17 04:57:05;;;;;;;18.13;13.37;;;4.60;99.90;;;;;;5033987;28;20223;-54
2020/12/17 04:59:40;;;;;;;17.70;12.87;;;4.60;99.90;;;;;;5033881;28;20167;-54
2020/12/17 05:02:06;;;;;;;16.33;12.67;;;4.60;99.90;;;;;;5034208;28;20202;-57
2020/12/17 05:04:41;;;;;;;17.93;12.77;;;4.60;99.90;;;;;;5033738;28;20180;-59
2020/12/17 05:07:09;;;;;;;17.47;13.43;;;4.60;99.90;;;;;;5034155;28;20213;-55
2020/12/17 05:09:36;;;;;;;16.90;12.23;;;4.50;99.90;;;;;;5033658;28;20184;-52
2020/12/17 05:12:02;;;;;;;18.10;12.80;;;4.50;99.90;;;;;;5033178;28;20275;-53
2020/12/17 05:14:28;;;;;;;19.57;12.60;;;4.50;99.90;;;;;;5032972;28;20247;-59
2020/12/17 05:16:55;;;;;;;20.07;14.17;;;4.50;99.90;;;;;;5035252;28;20191;-53
2020/12/17 05:19:22;;;;;;;18.00;14.17;;;4.50;99.90;;;;;;5036971;28;20187;-58
2020/12/17 05:21:47;;;;;;;20.53;14.40;;;4.50;99.90;;;;;;5036666;28;20179;-57
2020/12/17 05:24:13;;;;;;;18.87;13.17;;;4.50;99.90;;;;;;5036450;28;20180;-60
2020/12/17 05:26:40;;;;;;;19.17;14.80;;;4.30;99.90;;;;;;5036469;28;20207;-56
2020/12/17 05:29:05;;;;;;;20.67;15.57;;;4.20;99.90;;;;;;5037428;28;20175;-52
2020/12/17 05:31:34;;;;;;;16.13;12.10;;;4.10;99.90;;;;;;5036978;28;20179;-57
2020/12/17 05:34:06;;;;;;;19.10;13.17;;;4.00;99.90;;;;;;5037081;28;20179;-61
2020/12/17 05:36:32;;;;;;;16.50;12.43;;;4.00;99.90;;;;;;5037278;28;20183;-54
2020/12/17 05:39:11;;;;;;;21.90;15.43;;;4.10;99.90;;;;;;5036611;28;20275;-59
2020/12/17 05:41:37;;;;;;;18.50;14.40;;;4.20;99.90;;;;;;5036623;28;20180;-57
2020/12/17 05:44:13;;;;;;;18.33;12.73;;;4.20;99.90;;;;;;5036696;28;20187;-54
2020/12/17 05:46:41;;;;;;;17.83;13.10;;;4.10;99.90;;;;;;5036507;28;20195;-62
2020/12/17 05:49:13;;;;;;;19.53;13.43;;;4.10;99.90;;;;;;5036906;28;20259;-62
2020/12/17 05:51:40;;;;;;;19.60;13.77;;;4.10;99.90;;;;;;5036293;28;20516;-57
2020/12/17 05:54:09;;;;;;;18.50;13.33;;;4.10;99.90;;;;;;5036478;28;20222;-59
2020/12/17 05:56:36;;;;;;;19.37;13.67;;;4.20;99.90;;;;;;5036776;28;20180;-62
2020/12/17 05:59:04;;;;;;;19.70;13.70;;;4.20;99.90;;;;;;5036017;28;20667;-62
2020/12/17 06:01:30;;;;;;;19.30;13.70;;;4.20;99.90;;;;;;5045293;28;20240;-60
2020/12/17 06:03:56;;;;;;;20.37;13.90;;;4.10;99.90;;;;;;5055898;28;20183;-62
2020/12/17 06:06:23;;;;;;;18.97;13.53;;;4.10;99.90;;;;;;5055932;28;20210;-55
2020/12/17 06:08:53;;;;;;;17.67;13.60;;;4.20;99.90;;;;;;5056225;28;20179;-52
2020/12/17 06:11:23;;;;;;;17.77;13.20;;;5.60;99.90;;;;;;5056192;28;20195;-62
2020/12/17 06:13:55;;;;;;;22.20;16.87;;;4.30;99.90;;;;;;5056880;28;20217;-56
2020/12/17 06:16:22;;;;;;;19.90;14.60;;;4.20;99.90;;;;;;5055814;28;20163;-55
2020/12/17 06:18:57;;;;;;;20.00;14.60;;;4.30;99.90;;;;;;5056398;28;20210;-55
2020/12/17 06:21:27;;;;;;;17.57;13.10;;;4.20;99.90;;;;;;5055995;28;20170;-54
2020/12/17 06:23:57;;;;;;;20.00;15.07;;;4.30;99.90;;;;;;5056260;28;20195;-53
2020/12/17 06:26:23;;;;;;;18.83;13.77;;;4.20;99.90;;;;;;5055979;28;20195;-55
2020/12/17 06:28:51;;;;;;;21.37;15.87;;;4.10;99.90;;;;;;5055467;28;20214;-53
2020/12/17 06:31:26;;;;;;;19.53;14.77;;;4.00;99.90;;;;;;5055946;28;20215;-55
2020/12/17 06:34:00;;;;;;;18.40;14.13;;;4.00;99.90;;;;;;5056140;28;20159;-59
2020/12/17 06:36:36;;;;;;;19.90;15.47;;;4.10;99.90;;;;;;5055654;28;20159;-57
2020/12/17 06:39:06;;;;;;;23.77;17.37;;;4.10;99.90;;;;;;5056423;28;20175;-55
2020/12/17 06:41:31;;;;;;;23.80;17.50;;;4.10;99.90;;;;;;5055364;28;20611;-53
2020/12/17 06:43:57;;;;;;;24.53;16.97;;;4.00;99.90;;;;;;5055335;28;20175;-60
2020/12/17 06:46:34;;;;;;;24.50;16.67;;;4.10;99.90;;;;;;5055342;28;20287;-56
2020/12/17 06:49:01;;;;;;;20.07;14.80;;;4.20;99.90;;;;;;5055807;28;20255;-54
2020/12/17 06:51:34;;;;;;;22.43;16.70;;;4.20;99.90;;;;;;5055897;28;20171;-55
2020/12/17 06:54:02;;;;;;;23.53;16.93;;;4.30;99.90;;;;;;5055441;28;20258;-61
2020/12/17 06:56:27;;;;;;;21.03;15.37;;;4.40;99.90;;;;;;5054684;28;20183;-61
2020/12/17 06:59:22;;;;;;;21.53;16.23;;;4.50;99.90;;;;;;5055083;28;20175;-57
2020/12/17 07:01:48;;;;;;;22.40;15.83;;;4.50;99.90;;;;;;4955427;29;20201;-61
2020/12/17 07:04:50;;;;;;;22.13;16.17;;;4.50;99.90;;;;;;4954453;29;20265;-54
2020/12/17 07:07:20;;;;;;;22.00;15.50;;;4.50;99.90;;;;;;4954494;28;20718;-55
2020/12/17 07:09:52;;;;;;;21.97;16.47;;;4.60;99.90;;;;;;4955185;29;20177;-60
2020/12/17 07:12:36;;;;;;;19.63;14.87;;;4.70;99.90;;;;;;4954877;29;20187;-62
2020/12/17 07:15:25;;;;;;;24.83;16.27;;;4.80;99.90;;;;;;4954395;29;20273;-55
2020/12/17 07:17:51;;;;;;;22.10;15.90;;;4.90;99.90;;;;;;4954614;28;20213;-60
2020/12/17 07:20:31;;;;;;;21.23;15.47;;;4.80;99.90;;;;;;4954958;29;20179;-53
2020/12/17 07:22:57;;;;;;;22.00;15.70;;;4.70;99.90;;;;;;4954995;29;20182;-53
2020/12/17 07:25:33;;;;;;;19.10;14.63;;;4.80;99.90;;;;;;4954253;29;20210;-58
2020/12/17 07:27:59;;;;;;;19.97;14.60;;;6.00;99.90;;;;;;4947897;28;20210;-53
2020/12/17 07:30:25;;;;;;;21.60;15.13;;;4.80;99.90;;;;;;4954223;29;20186;-52
2020/12/17 07:32:51;;;;;;;22.50;16.03;;;4.80;99.90;;;;;;4949829;29;20639;-52
2020/12/17 07:35:22;;;;;;;19.40;14.70;;;4.80;99.90;;;;;;4950288;29;20650;-52
2020/12/17 07:37:58;;;;;;;20.40;15.53;;;4.80;99.90;;;;;;4983264;28;20686;-61
2020/12/17 07:40:26;;;;;;;24.40;17.03;;;4.90;99.90;;;;;;5052156;28;20218;-56
2020/12/17 07:42:59;;;;;;;20.63;16.20;;;5.00;99.90;;;;;;5052924;28;20175;-62
2020/12/17 07:45:58;;;;;;;22.23;15.67;;;5.00;99.90;;;;;;5052589;28;20585;-52
2020/12/17 07:48:35;;;;;;;22.17;15.47;;;5.00;99.90;;;;;;5033385;28;20208;-54
2020/12/17 07:51:02;;;;;;;24.40;16.00;;;5.00;99.90;;;;;;5043727;28;20202;-52
2020/12/17 07:53:28;;;;;;;20.50;15.23;;;5.00;99.90;;;;;;5033845;28;20190;-58
2020/12/17 07:55:54;;;;;;;21.97;16.40;;;5.00;99.90;;;;;;5038765;28;20534;-53
2020/12/17 07:58:20;;;;;;;20.37;14.80;;;5.00;99.90;;;;;;5049621;28;20199;-61
2020/12/17 08:00:46;;;;;;;24.50;16.87;;;5.10;99.90;;;;;;5048406;28;20532;-60
2020/12/17 08:03:12;;;;;;;19.17;15.37;;;5.10;99.90;;;;;;5033082;28;20678;-59
2020/12/17 08:05:40;;;;;;;21.93;15.43;;;5.30;99.90;;;;;;5033352;28;20583;-54
2020/12/17 08:08:06;;;;;;;20.50;14.73;;;5.40;99.90;;;;;;5033295;28;20667;-53
2020/12/17 08:10:38;;;;;;;21.10;15.43;;;5.40;99.90;;;;;;5033952;28;20198;-57
2020/12/17 08:13:04;;;;;;;22.33;15.47;;;5.50;99.90;;;;;;5033678;28;20152;-52
2020/12/17 08:15:29;;;;;;;23.13;16.83;;;5.50;99.90;;;;;;5034576;28;20183;-61
2020/12/17 08:17:56;;;;;;;21.30;16.17;;;5.40;99.90;;;;;;5040186;28;20223;-59
2020/12/17 08:20:22;;;;;;;21.13;15.70;;;5.50;99.90;;;;;;5052278;28;20183;-58
2020/12/17 08:22:48;;;;;;;22.73;16.40;;;5.50;99.90;;;;;;5052451;28;20186;-50
2020/12/17 08:25:16;;;;;;;21.57;15.97;;;5.60;99.90;;;;;;5048069;28;20211;-56
2020/12/17 08:27:42;;;;;;;22.87;16.23;;;5.60;99.90;;;;;;5050004;28;20729;-60
2020/12/17 08:30:08;;;;;;;21.10;15.60;;;5.60;99.90;;;;;;5049405;28;20691;-57
2020/12/17 08:32:33;;;;;;;24.00;16.27;;;5.50;99.90;;;;;;5044439;28;20164;-61
2020/12/17 08:34:59;;;;;;;27.43;20.07;;;5.70;99.90;;;;;;5047449;28;20183;-53
2020/12/17 08:37:25;;;;;;;27.20;20.93;;;5.40;99.90;;;;;;5052104;28;20412;-55
2020/12/17 08:40:05;;;;;;;27.00;19.47;;;5.30;99.90;;;;;;5050551;28;20422;-57
2020/12/17 08:42:35;;;;;;;66.57;39.23;;;5.10;99.90;;;;;;5039951;28;20198;-50
2020/12/17 08:45:12;;;;;;;31.80;24.23;;;5.20;99.90;;;;;;5036426;28;20190;-54
2020/12/17 08:47:39;;;;;;;31.07;22.33;;;5.20;99.90;;;;;;5033658;28;20233;-58
2020/12/17 08:50:09;;;;;;;27.50;19.73;;;5.20;99.90;;;;;;5033385;28;20651;-50
2020/12/17 08:52:35;;;;;;;28.00;20.00;;;5.20;99.90;;;;;;5039124;28;20206;-51
2020/12/17 08:55:06;;;;;;;28.70;20.40;;;5.30;99.90;;;;;;5049697;28;20694;-51
2020/12/17 08:57:32;;;;;;;27.50;19.97;;;5.30;99.90;;;;;;5038459;28;20206;-53
2020/12/17 08:59:57;;;;;;;29.20;20.87;;;5.30;99.90;;;;;;5050352;28;20199;-53
2020/12/17 09:02:28;;;;;;;29.13;20.73;;;5.30;99.90;;;;;;5051316;28;20179;-62
2020/12/17 09:04:58;;;;;;;29.57;21.07;;;5.30;99.90;;;;;;5044595;28;20658;-60
2020/12/17 09:07:25;;;;;;;29.63;21.73;;;5.10;99.90;;;;;;5020502;28;20558;-51
2020/12/17 09:09:51;;;;;;;29.07;19.30;;;5.00;99.90;;;;;;5045440;28;20175;-51
2020/12/17 09:12:27;;;;;;;28.93;20.57;;;5.00;99.90;;;;;;5054749;28;20206;-51
2020/12/17 09:14:53;;;;;;;27.77;19.70;;;5.10;99.90;;;;;;5056906;28;20638;-52
2020/12/17 09:17:18;;;;;;;29.50;20.60;;;4.90;99.90;;;;;;5054731;28;20202;-60
2020/12/17 09:19:48;;;;;;;26.17;18.80;;;4.80;99.90;;;;;;5042812;28;20197;-60
2020/12/17 09:22:19;;;;;;;27.60;19.07;;;4.90;99.90;;;;;;5056420;28;20190;-56
2020/12/17 09:24:54;;;;;;;26.50;19.03;;;5.10;99.90;;;;;;5055077;28;20286;-52
2020/12/17 09:27:20;;;;;;;28.23;20.03;;;5.20;99.90;;;;;;5056398;28;20234;-60
2020/12/17 09:30:06;;;;;;;28.10;20.70;;;5.30;99.90;;;;;;5055928;28;20179;-54
2020/12/17 09:32:35;;;;;;;26.30;19.50;;;5.30;99.90;;;;;;5056214;28;20171;-52
2020/12/17 09:35:08;;;;;;;25.93;18.17;;;5.30;99.90;;;;;;5056029;28;20573;-57
2020/12/17 09:37:34;;;;;;;28.10;18.70;;;5.40;99.90;;;;;;5056682;28;20286;-60
2020/12/17 09:40:00;;;;;;;23.77;17.73;;;5.40;99.90;;;;;;5056266;28;20171;-53
2020/12/17 09:42:26;;;;;;;24.50;17.80;;;5.50;99.90;;;;;;5056504;28;20175;-58
2020/12/17 09:44:51;;;;;;;24.07;18.13;;;5.60;99.90;;;;;;5056133;28;20534;-52
2020/12/17 09:47:33;;;;;;;29.90;20.87;;;5.60;99.90;;;;;;5053875;28;20733;-51
2020/12/17 09:50:18;;;;;;;29.80;19.57;;;5.60;99.90;;;;;;5036725;28;20172;-58
2020/12/17 09:52:44;;;;;;;28.73;20.10;;;5.70;99.90;;;;;;5036209;28;20183;-53
2020/12/17 09:55:13;;;;;;;27.67;19.83;;;5.60;99.90;;;;;;5018086;28;20646;-52
2020/12/17 09:57:44;;;;;;;30.07;20.43;;;5.60;99.90;;;;;;5001126;28;20214;-59
2020/12/17 10:00:12;;;;;;;29.67;20.77;;;5.50;99.90;;;;;;5035883;28;20176;-52
2020/12/17 10:02:39;;;;;;;29.93;21.13;;;5.50;99.90;;;;;;5035648;28;20179;-53
2020/12/17 10:05:06;;;;;;;32.10;21.73;;;5.50;99.90;;;;;;5036052;28;20168;-57
2020/12/17 10:07:32;;;;;;;28.93;20.43;;;5.30;99.90;;;;;;5035848;28;20259;-54
2020/12/17 10:09:58;;;;;;;28.10;20.37;;;5.10;99.90;;;;;;5036017;28;20176;-61
2020/12/17 10:12:24;;;;;;;31.17;25.00;;;5.00;99.90;;;;;;5035772;28;20555;-55
2020/12/17 10:14:50;;;;;;;31.23;23.60;;;4.90;99.90;;;;;;5035683;28;20176;-55
2020/12/17 10:17:15;;;;;;;26.50;19.03;;;4.90;99.90;;;;;;5035644;28;20207;-58
2020/12/17 10:19:41;;;;;;;44.53;33.40;;;5.00;99.90;;;;;;5042783;28;20202;-59
2020/12/17 10:22:06;;;;;;;39.60;28.10;;;5.20;99.90;;;;;;5044622;28;20257;-61
2020/12/17 10:24:32;;;;;;;42.10;29.93;;;5.20;99.90;;;;;;5035931;28;20198;-58
2020/12/17 10:27:00;;;;;;;28.40;21.07;;;5.20;99.90;;;;;;5036039;28;20207;-53
2020/12/17 10:29:25;;;;;;;26.77;20.10;;;5.30;99.90;;;;;;5036311;28;20176;-54
2020/12/17 10:31:51;;;;;;;25.40;17.63;;;5.40;99.90;;;;;;5035066;28;20175;-54
2020/12/17 10:34:17;;;;;;;32.00;23.63;;;5.50;99.90;;;;;;5041495;28;20265;-55
2020/12/17 10:36:43;;;;;;;30.60;21.87;;;5.50;99.90;;;;;;5055023;28;20293;-55
2020/12/17 10:39:09;;;;;;;29.10;21.23;;;5.30;99.90;;;;;;5042612;28;20233;-54
2020/12/17 10:41:36;;;;;;;63.23;42.10;;;5.30;99.90;;;;;;5035610;28;20176;-58
2020/12/17 10:44:03;;;;;;;42.17;30.27;;;5.30;99.90;;;;;;5035070;28;20658;-52
2020/12/17 10:46:29;;;;;;;31.60;21.97;;;5.20;99.90;;;;;;5035173;28;20207;-54
2020/12/17 10:48:55;;;;;;;28.70;20.87;;;5.00;99.90;;;;;;5035385;28;20318;-55
2020/12/17 10:51:20;;;;;;;29.60;20.77;;;5.00;99.90;;;;;;5034881;28;20187;-55
2020/12/17 10:53:46;;;;;;;26.13;18.93;;;5.00;99.90;;;;;;5042717;28;20228;-58
2020/12/17 10:56:12;;;;;;;25.20;18.50;;;5.10;99.90;;;;;;5044822;28;20187;-59
2020/12/17 10:58:38;;;;;;;31.53;22.60;;;5.10;99.90;;;;;;5043397;28;20203;-57
2020/12/17 11:01:04;;;;;;;27.33;19.80;;;5.00;99.90;;;;;;5045771;28;20186;-57
2020/12/17 11:03:30;;;;;;;27.17;18.37;;;5.00;99.90;;;;;;5038981;28;20571;-52
2020/12/17 11:05:56;;;;;;;27.10;18.27;;;5.00;99.90;;;;;;5042362;28;20199;-62
2020/12/17 11:08:23;;;;;;;24.60;17.33;;;5.10;99.90;;;;;;5035388;28;20210;-57
2020/12/17 11:10:49;;;;;;;24.77;17.90;;;5.20;99.90;;;;;;5035247;28;20214;-58
2020/12/17 11:13:15;;;;;;;26.63;19.13;;;5.30;99.90;;;;;;5034404;28;20183;-56
2020/12/17 11:15:42;;;;;;;30.83;21.60;;;5.50;99.90;;;;;;5034263;28;20184;-57
2020/12/17 11:18:08;;;;;;;24.27;17.13;;;5.60;99.90;;;;;;5035498;28;20195;-59
2020/12/17 11:20:34;;;;;;;24.43;17.20;;;5.60;99.90;;;;;;5034649;28;20646;-54
2020/12/17 11:22:59;;;;;;;22.90;15.63;;;5.40;99.90;;;;;;5034330;28;20176;-52
2020/12/17 11:25:25;;;;;;;20.33;13.93;;;5.30;99.90;;;;;;5034112;28;20258;-55
2020/12/17 11:27:50;;;;;;;23.30;15.43;;;5.10;99.90;;;;;;5034550;28;20282;-57
2020/12/17 11:30:16;;;;;;;20.57;15.20;;;5.00;99.90;;;;;;5045525;28;20175;-53
2020/12/17 11:32:42;;;;;;;20.90;15.00;;;5.00;99.90;;;;;;5052047;28;20210;-57
2020/12/17 11:35:07;;;;;;;22.40;16.03;;;5.20;99.90;;;;;;5046944;28;20221;-56
2020/12/17 11:37:34;;;;;;;19.37;14.23;;;5.40;99.90;;;;;;5036948;28;20196;-55
2020/12/17 11:40:00;;;;;;;21.13;14.23;;;5.50;99.90;;;;;;5034333;28;20176;-57
2020/12/17 11:42:27;;;;;;;19.27;13.97;;;5.70;99.90;;;;;;5034461;28;20651;-61
2020/12/17 11:44:52;;;;;;;18.80;14.17;;;5.80;99.90;;;;;;5033588;28;20261;-61
2020/12/17 11:47:18;;;;;;;20.40;14.07;;;6.00;99.90;;;;;;5040428;28;20234;-54
2020/12/17 11:49:44;;;;;;;19.97;13.90;;;6.10;99.90;;;;;;5042804;28;20531;-56
2020/12/17 11:52:09;;;;;;;20.70;14.50;;;6.00;99.90;;;;;;5041755;28;20166;-53
2020/12/17 11:54:35;;;;;;;21.17;13.33;;;6.00;99.90;;;;;;5044550;28;20164;-53
2020/12/17 11:57:00;;;;;;;19.00;13.83;;;5.90;99.90;;;;;;5025364;28;20269;-54
2020/12/17 11:59:28;;;;;;;18.75;15.02;;;5.90;99.90;;;;;;5039060;28;20424;-56
2020/12/17 12:01:53;;;;;;;20.37;14.70;;;5.90;99.90;;;;;;5042143;28;20632;-60
2020/12/17 12:04:19;;;;;;;19.20;13.73;;;6.00;99.90;;;;;;5043302;28;20183;-57
2020/12/17 12:06:48;;;;;;;20.60;14.93;;;6.20;99.90;;;;;;5045161;28;20203;-60
2020/12/17 12:09:18;;;;;;;20.37;15.13;;;6.40;99.90;;;;;;5026289;28;20205;-53
2020/12/17 12:11:47;;;;;;;20.73;14.80;;;6.40;99.90;;;;;;5046822;28;20672;-54
2020/12/17 12:14:12;;;;;;;18.70;13.40;;;6.60;99.90;;;;;;5017402;28;20271;-57
2020/12/17 12:16:38;;;;;;;18.20;14.03;;;6.70;99.90;;;;;;5054874;28;20589;-58
2020/12/17 12:19:04;;;;;;;19.13;14.37;;;6.70;99.90;;;;;;5056860;28;20175;-59
2020/12/17 12:21:30;;;;;;;18.63;13.37;;;6.60;99.90;;;;;;5055419;28;20245;-57
2020/12/17 12:23:55;;;;;;;20.17;14.97;;;6.40;99.90;;;;;;5054326;28;20558;-56
2020/12/17 12:26:21;;;;;;;18.20;14.10;;;6.30;99.90;;;;;;5057453;28;20190;-58
2020/12/17 12:28:46;;;;;;;19.33;13.67;;;6.20;99.90;;;;;;5058554;28;20163;-57
2020/12/17 12:31:15;;;;;;;20.57;15.10;;;6.10;99.90;;;;;;5039777;28;20186;-54
2020/12/17 12:33:41;;;;;;;18.23;13.63;;;6.00;99.90;;;;;;5037661;28;20187;-57
2020/12/17 12:36:08;;;;;;;18.90;13.57;;;6.20;99.90;;;;;;5038867;28;20534;-59
2020/12/17 12:38:34;;;;;;;19.67;13.20;;;6.40;99.90;;;;;;5038764;28;20202;-58